Flight Track Log - Related Links

Times and Time Zones

All times are in EDT time to prevent confusion due to time zone crossing. See the GJS3649 flight status page for this flight to view local times or setup timezone preferences in your user account.

Time Position Orientation Groundspeed Altitude Reporting Facility
EDT Latitude Longitude Course Direction KTS MPH feet Rate Location/Type
Sat 09:09:57 PM 42.0333 -87.9333 90° East 199 229 2,500  Level Chicago TRACON
Sat 09:10:57 PM 42.0833 -87.8833 37° Northeast 254 292 4,700 2,516 Climbing Chicago TRACON
Sat 09:13:03 PM 42.1358 -87.6694 72° East 310 357 10,300 2,246 Climbing Chicago Center
Sat 09:14:04 PM 42.1642 -87.5531 72° East 327 376 11,700 1,610 Climbing Chicago Center
Sat 09:15:00 PM 42.1140 -86.9959 90° East  Level Estimated
Sat 09:15:06 PM 42.1950 -87.4197 73° East 367 422 13,600  Level Chicago Center
Sat 09:16:07 PM 42.2294 -87.2753 72° East 402 463 15,200 1,820 Climbing Chicago Center
Sat 09:17:08 PM 42.2717 -87.0936 73° East 423 487 17,300 1,951 Climbing Chicago Center
Sat 09:18:10 PM 42.2836 -86.9264 84° East 451 519 19,200 1,707 Climbing Chicago Center
Sat 09:19:11 PM 42.2917 -86.7575 81° East 453 521 20,800 1,525 Climbing Chicago Center
Sat 09:20:00 PM 42.2862 -86.6414 81° East  Level FlightAware Approximate
Sat 09:20:12 PM 42.2989 -86.5761 87° East 469 540 22,300  Level Chicago Center
Sat 09:21:13 PM 42.3044 -86.4189 87° East 478 550 23,500 1,220 Climbing Chicago Center
Sat 09:22:15 PM 42.3114 -86.2344 87° East 491 565 24,800 1,366 Climbing Chicago Center
Sat 09:23:16 PM 42.3144 -86.0081 89° East 504 580 26,300 1,279 Climbing Chicago Center
Sat 09:24:17 PM 42.3128 -85.8144 91° East 517 595 27,400 1,024 Climbing Chicago Center
Sat 09:25:19 PM 42.3100 -85.6194 91° East 523 602 28,400 976 Climbing Chicago Center
Sat 09:26:20 PM 42.3075 -85.4203 91° East 533 613 29,400 984 Climbing Chicago Center
Sat 09:27:21 PM 42.3047 -85.2186 91° East 537 618 30,400 984 Climbing Chicago Center
Sat 09:28:22 PM 42.3014 -85.0194 91° East 537 618 31,400 984 Climbing Chicago Center
Sat 09:29:23 PM 42.2967 -84.8206 92° East 534 615 32,400 1,024 Climbing Chicago Center
Sat 09:30:25 PM 42.2892 -84.5800 92° East 536 617 33,500 976 Climbing Chicago Center
Sat 09:31:26 PM 42.2956 -84.3778 87° East 541 623 34,400 816 Climbing Chicago Center
Sat 09:32:08 PM 42.3019 -84.2669 86° East 536 617 34,900 816 Climbing Cleveland Center
Sat 09:33:09 PM 42.3131 -84.0661 86° East 536 617 35,800 984 Climbing Cleveland Center
Sat 09:34:10 PM 42.3264 -83.8311 86° East 526 605 36,900 590 Climbing Cleveland Center
Sat 09:35:11 PM 42.3367 -83.6317 86° East 528 608 37,000 49 Climbing Cleveland Center
Sat 09:36:12 PM 42.3461 -83.4439 86° East 541 623 37,000  Level Cleveland Center
Sat 09:37:13 PM 42.3581 -83.2344 86° East 550 633 37,000  Level Cleveland Center
Sat 09:38:14 PM 42.3664 -83.0414 87° East 552 635 37,000  Level Cleveland Center
Sat 09:39:15 PM 42.3764 -82.8328 86° East 555 639 37,000  Level Cleveland Center
Sat 09:40:16 PM 42.3875 -82.5831 86° East 556 640 37,000  Level Cleveland Center
Sat 09:41:16 PM 42.3972 -82.3758 86° East 555 639 37,000  Level Cleveland Center
Sat 09:42:17 PM 42.4058 -82.1689 87° East 554 638 37,000  Level Cleveland Center
Sat 09:43:18 PM 42.4133 -81.9742 87° East 553 636 37,000  Level Cleveland Center
Sat 09:44:19 PM 42.4219 -81.7628 87° East 555 639 37,000  Level Cleveland Center
Sat 09:45:20 PM 42.4303 -81.5528 87° East 554 638 37,000  Level Cleveland Center
Sat 09:46:21 PM 42.4372 -81.3411 87° East 557 641 37,000  Level Cleveland Center
Sat 09:47:22 PM 42.4447 -81.1286 87° East 559 643 37,000  Level Cleveland Center
Sat 09:48:23 PM 42.4508 -80.9186 88° East 556 640 37,000  Level Cleveland Center
Sat 09:49:23 PM 42.4575 -80.7081 87° East 553 636 37,000  Level Cleveland Center
Sat 09:50:24 PM 42.4631 -80.4994 88° East 551 634 37,000  Level Cleveland Center
Sat 09:51:25 PM 42.4692 -80.2889 88° East 555 639 37,000  Level Cleveland Center
Sat 09:52:26 PM 42.4739 -80.0767 88° East 557 641 37,000  Level Cleveland Center
Sat 09:53:27 PM 42.4803 -79.8561 88° East 554 638 37,000  Level Cleveland Center
Sat 09:54:28 PM 42.4839 -79.6481 89° East 556 640 37,000  Level Cleveland Center
Sat 09:55:28 PM 42.4881 -79.4392 88° East 556 640 37,000 -50 Level Cleveland Center
Sat 09:56:29 PM 42.5006 -79.2311 85° East 556 640 36,900 -541 Descending Cleveland Center
Sat 09:57:30 PM 42.5431 -79.0247 74° East 568 654 35,900 -1,033 Descending Cleveland Center
Sat 09:58:31 PM 42.5856 -78.8192 74° East 569 655 34,800 -1,537 Descending Cleveland Center
Sat 09:59:31 PM 42.6281 -78.6158 74° East 562 647 32,800 -2,231 Descending Cleveland Center
Sat 10:00:32 PM 42.6694 -78.4108 75° East 559 643 30,300 -2,459 Descending Cleveland Center
Sat 10:01:33 PM 42.7106 -78.2089 74° East 557 641 27,800 -2,459 Descending Cleveland Center
Sat 10:02:34 PM 42.7492 -78.0117 75° East 536 617 25,300 -2,479 Descending Cleveland Center
Sat 10:03:34 PM 42.7864 -77.8208 75° East 517 595 22,800 -2,331 Descending Cleveland Center
Sat 10:04:35 PM 42.8231 -77.6425 74° East 482 555 20,600 -2,115 Descending Cleveland Center
Sat 10:05:36 PM 42.8547 -77.4750 75° East 456 525 18,500 -2,083 Descending Cleveland Center
Sat 10:06:36 PM 42.8858 -77.3158 75° East 435 501 16,400 -1,884 Descending Cleveland Center
Sat 10:07:37 PM 42.9153 -77.1617 75° East 423 487 14,700 -1,672 Descending Cleveland Center
Sat 10:08:38 PM 42.9433 -77.0119 76° East 411 473 13,000 -1,636 Descending Cleveland Center
Sat 10:09:38 PM 42.9758 -76.8422 75° East 390 449 11,400 -1,339 Descending Cleveland Center
Sat 10:10:39 PM 42.9819 -76.7103 86° East 356 410 10,300 -1,082 Descending Cleveland Center
Sat 10:11:40 PM 42.9800 -76.5881 91° East 333 383 9,200 -1,190 Descending Cleveland Center
Sat 10:12:40 PM 42.9786 -76.4683 91° East 324 373 7,900 -1,289 Descending Cleveland Center
Sat 10:13:41 PM 42.9781 -76.3578 90° East 310 357 6,600 -1,240 Descending Cleveland Center
Sat 10:14:41 PM 42.9906 -76.2572 80° East 287 330 5,400 -1,091 Descending Cleveland Center
Sat 10:15:42 PM 42.9986 -76.1608 83° East 271 312 4,400 -934 Descending Cleveland Center
Sat 10:16:43 PM 43.0136 -76.0664 78° East 262 302 3,500 -793 Descending Cleveland Center
Sat 10:17:43 PM 43.0511 -75.9925 55° Northeast 245 282 2,800 -496 Descending Cleveland Center
Sat 10:18:44 PM 43.1031 -75.9650 21° North 224 258 2,500 -520 Descending Cleveland Center
Sat 10:19:50 PM 43.1108 -76.0269 280° West 118 136 1,700 -756 Descending Boston Center
Sat 10:20:51 PM 43.1094 -76.0750 268° West 122 140 900 -787 Descending Boston Center

Login

Don't have an account? Register now (free) for customized features, flight alerts, and more!